• Join FlightAware (Why Join?)
  • Login
  • US Flag 
05:25PM EDT


 

Airport Tracker/Info


-or-


 

Live Flight TrackerFlight Track Log ✈ AFR1427 ✈ 09-May-2013 ✈ LIPZ / VCE - LFPG / CDG

Flight Track Log - Related Links

Times and Time Zones

All times are in EDT time to prevent confusion due to time zone crossing. See the AFR1427 flight status page for this flight to view local times or setup timezone preferences in your user account.

Time Position Orientation Groundspeed Altitude Reporting Facility
EDT Latitude Longitude Course Direction KTS MPH feet Rate Location/Type
06:56AM 45.5250 12.3790 301° West 147 169 1,500  Level FlightAware
06:57AM 46.0467 11.0535 301° West  Level Estimated
06:57AM 45.5360 12.4000 53° Northeast 170 196 2,100  Level FlightAware
06:57AM 45.5310 12.4610 97° East 220 253 3,500 2,280 Climbing FlightAware
06:58AM 45.5280 12.4950 97° East 219 252 4,800 3,300 Climbing FlightAware
06:58AM 45.5220 12.5150 113° Southeast 221 254 5,700 3,300 Climbing FlightAware
06:58AM 45.5180 12.5210 134° Southeast 224 258 5,900 2,400 Climbing FlightAware
06:58AM 45.5010 12.5300 160° South 234 269 6,700 2,640 Climbing FlightAware
06:59AM 45.4640 12.4920 216° Southwest 243 280 8,800 2,280 Climbing FlightAware
07:00AM 45.4760 12.4170 283° West 293 337 10,000 1,680 Climbing FlightAware
07:00AM 45.4920 12.3430 287° West 330 380 11,100 2,520 Climbing FlightAware
07:01AM 45.5090 12.2090 280° West 337 388 14,200 2,820 Climbing FlightAware
07:02AM 45.5200 12.1200 280° West 349 402 15,800 2,460 Climbing FlightAware
07:03AM 45.5320 12.0190 280° West 352 405 17,700 2,520 Climbing FlightAware
07:04AM 45.5420 11.9270 279° West 355 409 19,400 2,160 Climbing FlightAware
07:04AM 45.5560 11.8070 280° West 364 419 21,200 1,980 Climbing FlightAware
07:05AM 45.5690 11.6950 279° West 374 430 22,700 1,800 Climbing FlightAware
07:06AM 45.5800 11.6040 280° West 386 444 23,600 1,860 Climbing FlightAware
07:07AM 45.5930 11.4850 279° West 382 440 25,400 1,980 Climbing FlightAware
07:08AM 45.6080 11.3550 279° West 380 437 27,100 1,800 Climbing FlightAware
07:08AM 45.6200 11.2510 279° West 389 448 28,100 1,320 Climbing FlightAware
07:09AM 45.6310 11.1490 279° West 394 453 29,000 1,500 Climbing FlightAware
07:10AM 45.6440 11.0110 278° West 394 453 30,400 1,380 Climbing FlightAware
07:10AM 45.6460 10.8880 271° West 409 471 31,000 420 Climbing FlightAware
07:11AM 45.6470 10.7860 271° West 409 471 31,000 300 Level FlightAware
07:12AM 45.6520 10.6610 273° West 409 471 31,500 1,020 Climbing FlightAware
07:12AM 45.6680 10.5670 284° West 405 466 32,500 1,680 Climbing FlightAware
07:13AM 45.6860 10.4630 284° West 391 450 33,800 1,800 Climbing FlightAware
07:14AM 45.7070 10.3410 284° West 384 442 35,100 1,260 Climbing FlightAware
07:15AM 45.7230 10.2420 283° West 390 449 35,600 660 Climbing FlightAware
07:15AM 45.7420 10.1300 284° West 395 455 36,100 720 Climbing FlightAware
07:16AM 45.7590 10.0300 284° West 395 455 36,700 780 Climbing FlightAware
07:17AM 45.7760 9.9310 284° West 395 455 37,200 900 Climbing FlightAware
07:17AM 45.7950 9.8190 284° West 389 448 38,000 540 Climbing FlightAware
07:18AM 45.8130 9.7110 283° West 399 459 38,000  Level FlightAware
07:19AM 45.8300 9.6080 283° West 398 458 38,000  Level FlightAware
07:19AM 45.8470 9.5010 283° West 397 457 38,000  Level FlightAware
07:20AM 45.8630 9.4020 283° West 396 456 38,000  Level FlightAware
07:21AM 45.8800 9.2980 283° West 396 456 38,000  Level FlightAware
07:22AM 45.8990 9.1850 284° West 394 453 38,000  Level FlightAware
07:22AM 45.9180 9.0670 283° West 393 452 38,000  Level FlightAware
07:23AM 45.9330 8.9680 282° West 392 451 38,000  Level FlightAware
07:24AM 45.9500 8.8660 284° West 392 451 38,000  Level FlightAware
07:24AM 45.9680 8.7520 283° West 394 453 38,000  Level FlightAware
07:25AM 45.9950 8.6550 292° West 398 458 38,000  Level FlightAware
07:26AM 46.0240 8.5560 293° West 398 458 38,000  Level FlightAware
07:26AM 46.0560 8.4470 293° West 398 458 38,000  Level FlightAware
07:27AM 46.0830 8.3560 293° West 397 457 38,000  Level FlightAware
07:28AM 46.1170 8.2380 293° West 397 457 38,000  Level FlightAware
07:29AM 46.1460 8.1420 294° West 399 459 38,000  Level FlightAware
07:29AM 46.1730 8.0480 293° West 400 460 38,000  Level FlightAware
07:30AM 46.2060 7.9330 293° West 400 460 38,000  Level FlightAware
07:31AM 46.2330 7.8400 293° West 399 459 38,000  Level FlightAware
07:31AM 46.2660 7.7250 293° West 399 459 38,000  Level FlightAware
07:32AM 46.2940 7.6250 292° West 398 458 38,000  Level FlightAware
07:33AM 46.3260 7.5150 293° West 398 458 38,000  Level FlightAware
07:33AM 46.3530 7.4190 292° West 395 455 38,000  Level FlightAware
07:34AM 46.3810 7.3190 292° West 396 456 38,000  Level FlightAware
07:35AM 46.4120 7.2090 292° West 395 455 38,000  Level FlightAware
07:36AM 46.4400 7.1110 293° West 395 455 38,000  Level FlightAware
07:36AM 46.4670 7.0150 292° West 396 456 38,000  Level FlightAware
07:37AM 46.5000 6.8940 292° West 396 456 38,000  Level FlightAware
07:38AM 46.5260 6.8010 292° West 397 457 38,000  Level FlightAware
07:38AM 46.5540 6.6980 292° West 397 457 38,000  Level FlightAware
07:39AM 46.5840 6.5890 292° West 395 455 38,000  Level FlightAware
07:40AM 46.6140 6.4780 292° West 393 452 38,000  Level FlightAware
07:40AM 46.6400 6.3840 292° West 391 450 38,000  Level FlightAware
07:41AM 46.6660 6.2890 292° West 391 450 38,000  Level FlightAware
07:42AM 46.6970 6.1720 291° West 392 451 38,000 -120 Level FlightAware
07:43AM 46.7260 6.0820 295° West 406 467 37,900  Descending FlightAware
07:43AM 46.7920 5.9950 318° Northwest 418 481 38,000 60 Climbing FlightAware
07:43AM 46.8131 5.9706 322° Northwest 427 491 38,000  Level FlightAware ADS-B
07:44AM 46.8590 5.9210 324° Northwest 426 490 38,000  Level FlightAware
07:44AM 46.8748 5.9034 323° Northwest 426 490 38,000  Level FlightAware ADS-B
07:45AM 46.9220 5.8510 323° Northwest 426 490 38,000  Level FlightAware
07:45AM 46.9910 5.7740 323° Northwest 426 490 38,000  Level FlightAware
07:46AM 47.0520 5.7060 323° Northwest 426 490 38,000  Level FlightAware
07:47AM 47.1170 5.6330 323° Northwest 427 491 38,000  Level FlightAware
07:47AM 47.1860 5.5560 323° Northwest 427 491 38,000  Level FlightAware
07:48AM 47.2480 5.4870 323° Northwest 425 489 38,000  Level FlightAware
07:49AM 47.3210 5.4040 322° Northwest 423 487 38,000 -660 Level FlightAware
07:50AM 47.3800 5.3370 322° Northwest 419 482 37,100 -1,920 Descending FlightAware
07:50AM 47.4430 5.2660 323° Northwest 412 474 35,500 -2,280 Descending FlightAware
07:51AM 47.5030 5.1970 322° Northwest 403 464 33,900 -2,160 Descending FlightAware
07:51AM 47.5265 5.1669 319° Northwest 399 459 33,500 -1,320 Descending FlightAware ADS-B
07:52AM 47.6190 5.0400 317° Northwest 411 473 32,200 -1,140 Descending FlightAware
07:52AM 47.6391 5.0113 316° Northwest 415 478 32,000 -1,020 Descending FlightAware ADS-B
07:53AM 47.6815 4.9524 317° Northwest 400 460 31,500 -960 Descending FlightAware ADS-B
07:54AM 47.7412 4.8696 317° Northwest 396 456 30,800 -960 Descending FlightAware ADS-B
07:54AM 47.7843 4.8092 317° Northwest 390 449 30,300 -960 Descending FlightAware ADS-B
07:55AM 47.8240 4.7537 317° Northwest 392 451 29,800 -1,080 Descending FlightAware ADS-B
07:55AM 47.8750 4.6822 317° Northwest 390 449 29,100 -1,080 Descending FlightAware ADS-B
07:56AM 47.9197 4.6193 317° Northwest 387 445 28,500 -960 Descending FlightAware ADS-B
07:57AM 47.9560 4.5680 317° Northwest 386 444 28,100 -1,320 Descending FlightAware
07:57AM 47.9731 4.5440 317° Northwest 386 444 27,600 -1,980 Descending FlightAware ADS-B
07:57AM 48.0040 4.5010 317° Northwest 380 437 26,800 -2,040 Descending FlightAware
07:58AM 48.0364 4.4544 316° Northwest 376 433 25,900 -2,340 Descending FlightAware ADS-B
07:58AM 48.0761 4.3982 317° Northwest 369 425 24,800 -2,040 Descending FlightAware ADS-B
07:59AM 48.1140 4.3440 316° Northwest 360 414 23,700 -1,980 Descending FlightAware
07:59AM 48.1277 4.3249 317° Northwest 361 415 23,400 -2,100 Descending FlightAware ADS-B
07:59AM 48.1690 4.2659 316° Northwest 356 410 22,200 -1,980 Descending FlightAware ADS-B
08:00AM 48.2085 4.2096 316° Northwest 352 405 21,200 -1,920 Descending FlightAware ADS-B
08:00AM 48.2438 4.1590 316° Northwest 347 399 20,200 -1,980 Descending FlightAware ADS-B
08:01AM 48.2806 4.1061 316° Northwest 347 399 19,200 -2,040 Descending FlightAware ADS-B
08:02AM 48.3218 4.0468 316° Northwest 361 415 18,000 -2,040 Descending FlightAware ADS-B
08:02AM 48.3589 3.9933 316° Northwest 354 407 17,000 -1,980 Descending FlightAware ADS-B
08:03AM 48.3940 3.9427 316° Northwest 349 402 16,000 -1,920 Descending FlightAware ADS-B
08:03AM 48.4318 3.8878 316° Northwest 353 406 15,000 -1,860 Descending FlightAware ADS-B
08:04AM 48.4704 3.8321 316° Northwest 343 395 14,000 -1,980 Descending FlightAware ADS-B
08:04AM 48.5067 3.7793 316° Northwest 342 394 12,900 -1,860 Descending FlightAware ADS-B
08:05AM 48.5321 3.7422 316° Northwest 330 380 12,300 -1,500 Descending FlightAware ADS-B
08:05AM 48.5419 3.7248 310° West 321 369 12,100 -1,380 Descending FlightAware ADS-B
08:05AM 48.5524 3.7042 308° West 320 368 11,800 -1,680 Descending FlightAware ADS-B
08:05AM 48.5590 3.6943 315° West 324 373 11,600 -1,500 Descending FlightAware ADS-B
08:05AM 48.5663 3.6862 324° Northwest 327 376 11,500 -1,020 Descending FlightAware ADS-B
08:05AM 48.5742 3.6801 333° Northwest 328 377 11,400 -1,020 Descending FlightAware ADS-B
08:05AM 48.5835 3.6756 342° North 329 379 11,300 -840 Descending FlightAware ADS-B
08:06AM 48.6269 3.6635 350° North 311 358 10,900 -1,020 Descending FlightAware ADS-B
08:07AM 48.6943 3.6459 350° North 308 354 10,000 -1,080 Descending FlightAware ADS-B
08:07AM 48.7142 3.6409 350° North 283 326 9,800 -1,020 Descending FlightAware ADS-B
08:08AM 48.7794 3.6244 351° North 276 318 8,900 -1,200 Descending FlightAware ADS-B
08:08AM 48.8222 3.6135 350° North 269 310 8,100 -1,320 Descending FlightAware ADS-B
08:09AM 48.8414 3.6087 351° North 265 305 7,800 -1,080 Descending FlightAware ADS-B
08:09AM 48.8624 3.6035 351° North 263 303 7,500 -1,320 Descending FlightAware ADS-B
08:09AM 48.8810 3.5992 351° North 261 300 7,100 -1,380 Descending FlightAware ADS-B
08:09AM 48.8994 3.5944 350° North 259 298 6,800 -1,260 Descending FlightAware ADS-B
08:10AM 48.9080 3.5887 336° Northwest 250 288 6,600 -1,320 Descending FlightAware ADS-B
08:10AM 48.9202 3.5712 317° Northwest 234 269 6,300 -1,380 Descending FlightAware ADS-B
08:10AM 48.9305 3.5504 307° West 228 262 5,900 -1,500 Descending FlightAware ADS-B
08:10AM 48.9399 3.5304 306° West 229 264 5,500 -1,500 Descending FlightAware ADS-B
08:11AM 48.9496 3.5087 304° West 232 267 5,100 -1,020 Descending FlightAware ADS-B
08:11AM 48.9583 3.4884 303° West 229 264 5,000 -600 Descending FlightAware ADS-B
08:11AM 48.9672 3.4681 304° West 229 264 4,800 -1,200 Descending FlightAware ADS-B
08:11AM 48.9765 3.4462 303° West 228 262 4,400 -1,500 Descending FlightAware ADS-B
08:12AM 48.9837 3.4290 303° West 232 267 4,100 -840 Descending FlightAware ADS-B
08:12AM 48.9934 3.4061 303° West 229 264 4,000 -240 Descending FlightAware ADS-B
08:12AM 49.0030 3.3837 303° West 231 266 4,000  Level FlightAware ADS-B
08:12AM 49.0122 3.3620 303° West 231 266 4,000  Level FlightAware ADS-B
08:13AM 49.0210 3.3415 303° West 230 265 4,000 -300 Level FlightAware ADS-B
08:13AM 49.0248 3.3307 298° West 229 264 3,900 -420 Descending FlightAware ADS-B
08:13AM 49.0273 3.3189 288° West 225 259 3,900 480 Level FlightAware ADS-B
08:13AM 49.0282 3.3117 281° West 225 259 4,000 420 Climbing FlightAware ADS-B
08:13AM 49.0287 3.2975 273° West 222 255 4,000  Level FlightAware ADS-B
08:13AM 49.0284 3.2758 269° West 220 253 4,000  Level FlightAware ADS-B
08:13AM 49.0281 3.2650 268° West 221 254 4,000  Level FlightAware ADS-B
08:14AM 49.0269 3.2408 266° West 220 253 4,000  Level FlightAware ADS-B
08:14AM 49.0257 3.2170 266° West 222 255 4,000  Level FlightAware ADS-B
08:14AM 49.0243 3.1860 266° West 222 255 4,000 -180 Level FlightAware ADS-B
08:15AM 49.0232 3.1610 266° West 225 259 3,900  Descending FlightAware ADS-B
08:15AM 49.0221 3.1366 266° West 223 257 4,000 180 Climbing FlightAware ADS-B
08:15AM 49.0209 3.1125 266° West 225 259 4,000  Level FlightAware ADS-B
08:15AM 49.0194 3.0817 266° West 225 259 4,000  Level FlightAware ADS-B
08:16AM 49.0181 3.0562 266° West 226 260 4,000  Level FlightAware ADS-B
08:16AM 49.0169 3.0322 266° West 224 258 4,000 -240 Level FlightAware ADS-B
08:16AM 49.0159 3.0129 266° West 217 250 3,900 -300 Descending FlightAware ADS-B
08:16AM 49.0151 2.9960 266° West 202 232 3,900 180 Level FlightAware ADS-B
08:17AM 49.0142 2.9753 266° West 192 221 4,000 240 Climbing FlightAware ADS-B
08:17AM 49.0135 2.9626 265° West 187 215 4,000  Level FlightAware ADS-B
08:17AM 49.0125 2.9434 265° West 170 196 4,000  Level FlightAware ADS-B
08:17AM 49.0117 2.9259 266° West 161 185 4,000 -240 Level FlightAware ADS-B
08:17AM 49.0110 2.9143 265° West 159 183 3,900 -240 Descending FlightAware ADS-B
08:18AM 49.0100 2.8946 266° West 156 180 3,900  Level FlightAware ADS-B
08:18AM 49.0093 2.8790 266° West 157 181 3,900 -300 Level FlightAware ADS-B
08:18AM 49.0089 2.8714 265° West 158 182 3,800 -840 Descending FlightAware ADS-B
08:18AM 49.0080 2.8546 265° West 156 180 3,600 -840 Descending FlightAware ADS-B
08:19AM 49.0072 2.8381 266° West 156 180 3,400 -900 Descending FlightAware ADS-B
08:19AM 49.0065 2.8248 265° West 155 178 3,200 -1,200 Descending FlightAware ADS-B
08:19AM 49.0060 2.8157 265° West 153 176 3,000 -900 Descending FlightAware ADS-B
08:19AM 49.0054 2.8022 266° West 151 174 2,900 -840 Descending FlightAware ADS-B
08:19AM 49.0048 2.7914 265° West 155 178 2,700 -960 Descending FlightAware ADS-B
08:20AM 49.0040 2.7748 266° West 153 176 2,500 -780 Descending FlightAware ADS-B
08:20AM 49.0031 2.7574 266° West 153 176 2,300 -780 Descending FlightAware ADS-B
08:20AM 49.0021 2.7399 265° West 153 176 2,100 -840 Descending FlightAware ADS-B
08:21AM 49.0009 2.7182 265° West 147 169 1,800 -900 Descending FlightAware ADS-B
08:21AM 49.0002 2.7047 265° West 132 152 1,600 -780 Descending FlightAware ADS-B
08:21AM 48.9994 2.6890 266° West 131 151 1,400 -540 Descending FlightAware ADS-B
08:21AM 48.9986 2.6736 265° West 130 150 1,300 -540 Descending FlightAware ADS-B
08:21AM 48.9983 2.6670 266° West 131 151 1,200 -1,020 Descending FlightAware ADS-B
08:22AM 48.9977 2.6569 265° West 128 147 1,000 -720 Descending FlightAware ADS-B
08:22AM 48.9971 2.6445 266° West 135 155 900 -600 Descending FlightAware ADS-B
08:22AM 48.9967 2.6388 264° West 136 157 800 -840 Descending FlightAware ADS-B
08:22AM 48.9960 2.6241 266° West 130 150 600 -660 Descending FlightAware ADS-B
08:22AM 48.9954 2.6132 265° West 128 147 500 -540 Descending FlightAware ADS-B